Anvik Airport Anvik US
ICAO: PANV
IATA:
Category: Medium
Scheduled Services:

Elevation: 291 ft
TransAlt. 18000 ft.

Airport Communications:
AWOS 3:133.55
ANCHORAGE CNTR:135.7
KENAI RDO:122.4
CTAF/UNICOM:122.7

PANV Zoom In..

Runways:

(A) RW 17 length 4000 ft width 75 ft
---- / hdg 172

(B) RW 35 length 4000 ft width 75 ft
---- / hdg 352

Location; PANV
Day. 25 / Time. 09.56 Zulu
* Altimeter: 29.35
* Temperature: 02° c. 35.6°f.
* Wind from: 150° Speed 10 kn.
Dewpoint: 00° c.
Visibility: 10 Statute Miles.
Clouds: Broken 1900 ft.
Clouds: Overcast 2400 ft.

PANV 250956Z AUTO 15010KT 10SM BKN019 OVC024 02/00 A2935 RMK AO2 RAB26E56 SLP960 P0000 T00220000 FZRANO


Wind From 150°
Speed 10 kn.

  YouTube Music Video
 
jpsmedia.com for Web Design  worldairports.se 2018   terms of use